AirNav   Pilot Hours Calculator
 
 1262 users online  

OH37 Mercy Anderson Heliport
Cincinnati, Ohio, USA

GOING TO CINCINNATI?


FAA INFORMATION EFFECTIVE 25 MARCH 2021

Location

FAA Identifier: OH37
Lat/Long: 39-05-07.8000N 084-21-00.7100W
39-05.130000N 084-21.011833W
39.0855000,-84.3501972
(estimated)
Elevation: 817 ft. / 249 m (estimated)
From city: 8 miles WNW of CINCINNATI, OH
Time zone: UTC -4 (UTC -5 during Standard Time)
Zip code: 45230

Heliport Operations

Heliport use: Private use. Permission required prior to landing
Activation date: 06/2016
Control tower: no
ARTCC: INDIANAPOLIS CENTER
FSS: DAYTON FLIGHT SERVICE STATION
Attendance: ON CALL
FOR SVC CTC 513-632-9911.
Wind indicator: lighted
Segmented circle: no

Heliport Communications

WX ASOS at LUK (3 nm W): PHONE 513-321-6291
WX AWOS-3 at I69 (7 nm E): 127.275 (513-732-6978)
WX ASOS at CVG (15 nm W): 134.375 (859-767-8210)
WX ASOS at HAO (19 nm NW): 121.425 (513-863-6137)

Nearby radio navigation aids

VOR radial/distance  VOR name  Freq  Var
CVGr080/17.0CINCINNATI VORTAC117.3004W
FLMr360/26.2FALMOUTH VOR/DME117.0004W
MXQr235/32.8MIDWEST VOR/DME112.9004W

 
NDB name  Hdg/Dist  Freq  Var  ID
SPORTYS279/6.324504WPWF .--. .-- ..-.
HOOK FIELD174/25.223904WHKF .... -.- ..-.
WEST UNION295/39.235904WAMT .- -- -

Heliport Services

Runway Information

Helipad H1

Dimensions: 40 x 40 ft. / 12 x 12 m
Surface: concrete
Runway edge lights: PERI
Traffic pattern: leftleft

Heliport Ownership and Management from official FAA records

Ownership: Privately-owned
Owner: MERCY HEALTH ANDERSON HOSPITAL
7500 STATE ROAD
CINCINNATI, OH 45255
Phone 513-624-4500
Manager: BOB SIMMONS
7500 STATE ROAD
CINCINNATI, OH 45255
Phone 513-624-4698
ADNL CTC: BSIMMONS@MERCY.COM.

Additional Remarks

FOR CD CTC INDIANAPOLIS ARTCC AT 317-247-2411.

Instrument Procedures

There are no published instrument procedures at OH37.

Some nearby airports with instrument procedures:

KLUK - Cincinnati Municipal Airport/Lunken Field (3 nm W)
I69 - Clermont County Airport (7 nm E)
KCVG - Cincinnati/Northern Kentucky International Airport (15 nm W)
KHAO - Butler County Regional Airport/Hogan Field (19 nm NW)
I67 - Cincinnati West Airport (22 nm NW)
 
Loc | Ops | Rwys | IFR | FBO | Links
Com | Nav | Svcs | Stats | Notes
Aerial photo
No photo
 
Airport distance calculator
Flying to Mercy Anderson Heliport? Find the distance to fly.

From to OH37

Sunrise and sunset
Times for 17-Apr-2021
 Local
(UTC-4)
 Zulu
(UTC)
Morning civil twilight06:3110:31
Sunrise06:5910:59
Sunset20:1500:15
Evening civil twilight20:4300:43

Current date and time
Zulu (UTC)  17-Apr-2021 15:57:08
Local (UTC-4)  17-Apr-2021 11:57:08
 
METAR
KLUK 
3nm W 
171453Z 00000KT 10SM OVC080 11/06 A2992 RMK AO2 SLP132 T01060056 51003
KI69 
7nm E 
171535Z AUTO 00000KT 10SM BKN060 OVC070 12/05 A2991 RMK AO2 T01150054
KCVG 
15nm W 
171452Z 32004KT 10SM -RA BKN055 OVC065 11/05 A2990 RMK AO2 RAB45 SLP125 P0000 60000 T01110050 53005
KHAO 
19nm NW 
171453Z AUTO VRB03KT 10SM FEW050 SCT075 11/05 A2992 RMK AO2 RAB16E35 SLP133 P0000 60000 T01060050 51002
TAF
KLUK 
3nm W 
171125Z 1712/1812 00000KT P6SM SCT060 OVC150 FM171400 29003KT P6SM BKN050 OVC100 FM171700 31005KT P6SM VCSH OVC050 FM172000 30006KT P6SM OVC070 FM180300 00000KT P6SM SCT060
KCVG 
15nm W 
171125Z 1712/1818 VRB02KT P6SM SCT060 OVC150 FM171400 30004KT P6SM BKN050 OVC120 FM171700 30007KT P6SM VCSH OVC045 FM172000 30008KT P6SM OVC070 FM180100 29003KT P6SM SCT060 FM180150 31005KT P6SM SCT150
NOTAMs
Click for the latest NOTAMs
NOTAMs are issued by the DoD/FAA and will open in a separate window not controlled by AirNav.

 

 
 

Would you like to see your business listed on this page?

 If your business provides an interesting product or service to pilots, flight crews, aircraft, or users of the Mercy Anderson Heliport, you should consider listing it here.  To start the listing process, click on the button below
 
Add a business
 

Other Pages about Mercy Anderson Heliport

Update a link
 
Copyright © AirNav, LLC. All rights reserved. Privacy Policy  Contact